sensor_id;sensor_type;location;lat;lon;timestamp;pressure;altitude;pressure_sealevel;temperature;humidity
61710;BME280;47633;51.494;5.386;2023-04-02T00:08:03;100983.47;;;19.04;47.32
61710;BME280;47633;51.494;5.386;2023-04-02T00:10:37;100985.16;;;19.05;47.18
61710;BME280;47633;51.494;5.386;2023-04-02T00:15:34;100991.50;;;19.02;47.03
61710;BME280;47633;51.494;5.386;2023-04-02T00:18:00;100990.94;;;18.99;47.02
61710;BME280;47633;51.494;5.386;2023-04-02T00:20:26;100992.63;;;19.00;46.91
61710;BME280;47633;51.494;5.386;2023-04-02T00:22:53;100997.06;;;18.99;46.96
61710;BME280;47633;51.494;5.386;2023-04-02T00:25:18;101001.63;;;18.97;46.97
61710;BME280;47633;51.494;5.386;2023-04-02T00:27:44;101011.09;;;19.00;46.76
61710;BME280;47633;51.494;5.386;2023-04-02T00:30:14;101008.72;;;18.97;46.87
61710;BME280;47633;51.494;5.386;2023-04-02T00:32:40;101014.81;;;18.97;46.79
61710;BME280;47633;51.494;5.386;2023-04-02T00:35:27;101014.00;;;18.97;46.74
61710;BME280;47633;51.494;5.386;2023-04-02T00:37:53;101022.03;;;18.95;46.91
61710;BME280;47633;51.494;5.386;2023-04-02T00:40:23;101022.88;;;18.96;46.81
61710;BME280;47633;51.494;5.386;2023-04-02T00:42:51;101030.09;;;18.94;46.79
61710;BME280;47633;51.494;5.386;2023-04-02T00:45:26;101033.56;;;18.94;46.76
61710;BME280;47633;51.494;5.386;2023-04-02T00:47:58;101036.44;;;18.91;46.67
61710;BME280;47633;51.494;5.386;2023-04-02T00:50:34;101036.56;;;18.90;46.65
61710;BME280;47633;51.494;5.386;2023-04-02T00:53:21;101041.84;;;18.90;46.65
61710;BME280;47633;51.494;5.386;2023-04-02T00:55:48;101046.19;;;18.91;46.64
61710;BME280;47633;51.494;5.386;2023-04-02T00:58:21;101050.63;;;18.90;46.63
61710;BME280;47633;51.494;5.386;2023-04-02T01:00:50;101060.22;;;18.91;46.58
61710;BME280;47633;51.494;5.386;2023-04-02T01:05:55;101067.56;;;18.88;46.65
61710;BME280;47633;51.494;5.386;2023-04-02T01:08:34;101066.03;;;18.85;46.46
61710;BME280;47633;51.494;5.386;2023-04-02T01:11:12;101073.09;;;18.84;46.49
61710;BME280;47633;51.494;5.386;2023-04-02T01:22:03;101088.09;;;18.84;46.20
61710;BME280;47633;51.494;5.386;2023-04-02T01:24:32;101088.94;;;18.84;46.12
61710;BME280;47633;51.494;5.386;2023-04-02T01:27:05;101089.38;;;18.78;46.13
61710;BME280;47633;51.494;5.386;2023-04-02T01:29:41;101099.59;;;18.83;46.25
61710;BME280;47633;51.494;5.386;2023-04-02T01:32:11;101102.22;;;18.83;46.27
61710;BME280;47633;51.494;5.386;2023-04-02T01:34:38;101095.41;;;18.80;46.41
61710;BME280;47633;51.494;5.386;2023-04-02T01:37:05;101102.34;;;18.81;46.30
61710;BME280;47633;51.494;5.386;2023-04-02T01:45:09;101122.06;;;18.77;45.92
61710;BME280;47633;51.494;5.386;2023-04-02T01:47:37;101131.75;;;18.77;45.78
61710;BME280;47633;51.494;5.386;2023-04-02T01:50:19;101125.75;;;18.75;46.08
61710;BME280;47633;51.494;5.386;2023-04-02T01:52:50;101138.00;;;18.76;45.91
61710;BME280;47633;51.494;5.386;2023-04-02T01:55:19;101141.59;;;18.75;45.98
61710;BME280;47633;51.494;5.386;2023-04-02T01:57:53;101153.84;;;18.76;46.27
61710;BME280;47633;51.494;5.386;2023-04-02T02:00:19;101154.81;;;18.75;45.86
61710;BME280;47633;51.494;5.386;2023-04-02T02:02:48;101157.56;;;18.73;45.96
61710;BME280;47633;51.494;5.386;2023-04-02T02:05:17;101160.22;;;18.73;45.91
61710;BME280;47633;51.494;5.386;2023-04-02T02:07:43;101169.06;;;18.72;45.94
61710;BME280;47633;51.494;5.386;2023-04-02T02:10:33;101170.78;;;18.73;46.01
61710;BME280;47633;51.494;5.386;2023-04-02T02:12:59;101163.78;;;18.72;45.80
61710;BME280;47633;51.494;5.386;2023-04-02T02:15:25;101169.94;;;18.73;45.73
61710;BME280;47633;51.494;5.386;2023-04-02T02:17:55;101177.97;;;18.71;45.64
61710;BME280;47633;51.494;5.386;2023-04-02T02:20:22;101189.50;;;18.70;45.81
61710;BME280;47633;51.494;5.386;2023-04-02T02:22:50;101189.59;;;18.68;45.79
61710;BME280;47633;51.494;5.386;2023-04-02T02:25:18;101199.34;;;18.68;45.97
61710;BME280;47633;51.494;5.386;2023-04-02T02:27:46;101200.06;;;18.70;45.67
61710;BME280;47633;51.494;5.386;2023-04-02T02:30:26;101206.28;;;18.69;45.42
61710;BME280;47633;51.494;5.386;2023-04-02T02:33:25;101211.56;;;18.69;45.65
61710;BME280;47633;51.494;5.386;2023-04-02T02:41:21;101220.81;;;18.63;45.48
61710;BME280;47633;51.494;5.386;2023-04-02T02:44:10;101235.47;;;18.67;45.64
61710;BME280;47633;51.494;5.386;2023-04-02T02:46:53;101233.06;;;18.64;45.61
61710;BME280;47633;51.494;5.386;2023-04-02T02:49:30;101240.88;;;18.66;45.54
61710;BME280;47633;51.494;5.386;2023-04-02T02:52:11;101233.91;;;18.65;45.84
61710;BME280;47633;51.494;5.386;2023-04-02T02:54:40;101246.16;;;18.66;45.75
61710;BME280;47633;51.494;5.386;2023-04-02T02:57:11;101252.25;;;18.66;45.62
61710;BME280;47633;51.494;5.386;2023-04-02T02:59:37;101254.19;;;18.64;45.56
61710;BME280;47633;51.494;5.386;2023-04-02T03:02:04;101256.69;;;18.66;45.42
61710;BME280;47633;51.494;5.386;2023-04-02T03:04:31;101260.28;;;18.65;45.33
61710;BME280;47633;51.494;5.386;2023-04-02T03:07:00;101271.91;;;18.62;45.47
61710;BME280;47633;51.494;5.386;2023-04-02T03:17:59;101283.06;;;18.55;45.03
61710;BME280;47633;51.494;5.386;2023-04-02T03:20:45;101300.13;;;18.62;45.07
61710;BME280;47633;51.494;5.386;2023-04-02T03:23:26;101305.41;;;18.62;45.19
61710;BME280;47633;51.494;5.386;2023-04-02T03:28:26;101320.53;;;18.60;45.14
61710;BME280;47633;51.494;5.386;2023-04-02T03:31:02;101320.53;;;18.60;45.18
61710;BME280;47633;51.494;5.386;2023-04-02T03:33:36;101328.56;;;18.58;45.00
61710;BME280;47633;51.494;5.386;2023-04-02T03:39:13;101336.59;;;18.57;44.96
61710;BME280;47633;51.494;5.386;2023-04-02T03:44:30;101347.28;;;18.55;44.66
61710;BME280;47633;51.494;5.386;2023-04-02T03:47:04;101366.47;;;18.57;44.66
61710;BME280;47633;51.494;5.386;2023-04-02T03:49:55;101362.25;;;18.55;44.58
61710;BME280;47633;51.494;5.386;2023-04-02T03:52:25;101355.63;;;18.49;44.67
61710;BME280;47633;51.494;5.386;2023-04-02T03:54:51;101367.75;;;18.52;44.66
61710;BME280;47633;51.494;5.386;2023-04-02T03:57:26;101386.97;;;18.54;44.65
61710;BME280;47633;51.494;5.386;2023-04-02T03:59:59;101385.41;;;18.51;44.50
61710;BME280;47633;51.494;5.386;2023-04-02T04:05:22;101403.88;;;18.51;44.50
61710;BME280;47633;51.494;5.386;2023-04-02T04:07:51;101398.59;;;18.51;44.33
61710;BME280;47633;51.494;5.386;2023-04-02T04:10:22;101405.91;;;18.47;44.50
61710;BME280;47633;51.494;5.386;2023-04-02T04:12:49;101408.44;;;18.49;44.35
61710;BME280;47633;51.494;5.386;2023-04-02T04:15:21;101411.06;;;18.49;44.69
61710;BME280;47633;51.494;5.386;2023-04-02T04:17:54;101419.81;;;18.49;44.36
61710;BME280;47633;51.494;5.386;2023-04-02T04:20:50;101427.72;;;18.49;44.50
61710;BME280;47633;51.494;5.386;2023-04-02T04:23:29;101437.47;;;18.49;44.32
61710;BME280;47633;51.494;5.386;2023-04-02T04:26:00;101437.56;;;18.47;44.41
61710;BME280;47633;51.494;5.386;2023-04-02T04:28:58;101442.75;;;18.49;44.34
61710;BME280;47633;51.494;5.386;2023-04-02T04:31:37;101445.72;;;18.44;44.57
61710;BME280;47633;51.494;5.386;2023-04-02T04:34:13;101455.09;;;18.48;44.62
61710;BME280;47633;51.494;5.386;2023-04-02T04:36:44;101458.91;;;18.44;44.38
61710;BME280;47633;51.494;5.386;2023-04-02T04:39:22;101460.72;;;18.44;44.22
61710;BME280;47633;51.494;5.386;2023-04-02T04:41:50;101474.63;;;18.46;44.20
61710;BME280;47633;51.494;5.386;2023-04-02T04:44:23;101483.38;;;18.46;44.39
61710;BME280;47633;51.494;5.386;2023-04-02T04:47:03;101488.78;;;18.45;44.11
61710;BME280;47633;51.494;5.386;2023-04-02T04:49:53;101503.78;;;18.44;44.24
61710;BME280;47633;51.494;5.386;2023-04-02T04:52:25;101501.25;;;18.43;44.21
61710;BME280;47633;51.494;5.386;2023-04-02T04:54:51;101506.41;;;18.44;43.87
61710;BME280;47633;51.494;5.386;2023-04-02T04:57:33;101510.00;;;18.43;44.15
61710;BME280;47633;51.494;5.386;2023-04-02T05:00:38;101512.63;;;18.43;44.09
61710;BME280;47633;51.494;5.386;2023-04-02T05:03:18;101514.56;;;18.41;43.97
61710;BME280;47633;51.494;5.386;2023-04-02T05:05:46;101517.31;;;18.40;43.96
61710;BME280;47633;51.494;5.386;2023-04-02T05:08:25;101529.66;;;18.39;43.99
61710;BME280;47633;51.494;5.386;2023-04-02T05:10:59;101532.31;;;18.39;44.10
61710;BME280;47633;51.494;5.386;2023-04-02T05:13:43;101539.34;;;18.39;44.36
61710;BME280;47633;51.494;5.386;2023-04-02T05:16:19;101551.72;;;18.38;44.67
61710;BME280;47633;51.494;5.386;2023-04-02T05:21:41;101549.47;;;18.45;44.85
61710;BME280;47633;51.494;5.386;2023-04-02T05:24:42;101557.28;;;18.46;44.87
61710;BME280;47633;51.494;5.386;2023-04-02T05:30:14;101558.66;;;18.52;44.88
61710;BME280;47633;51.494;5.386;2023-04-02T05:32:52;101577.84;;;18.54;44.70
61710;BME280;47633;51.494;5.386;2023-04-02T05:35:19;101579.34;;;18.58;44.79
61710;BME280;47633;51.494;5.386;2023-04-02T05:37:49;101587.03;;;18.61;44.69
61710;BME280;47633;51.494;5.386;2023-04-02T05:40:26;101591.47;;;18.61;44.64
61710;BME280;47633;51.494;5.386;2023-04-02T05:42:54;101586.94;;;18.63;44.70
61710;BME280;47633;51.494;5.386;2023-04-02T05:45:34;101601.38;;;18.70;44.33
61710;BME280;47633;51.494;5.386;2023-04-02T05:48:03;101595.13;;;18.71;44.27
61710;BME280;47633;51.494;5.386;2023-04-02T05:50:36;101601.16;;;18.73;44.26
61710;BME280;47633;51.494;5.386;2023-04-02T05:53:12;101599.13;;;18.77;44.57
61710;BME280;47633;51.494;5.386;2023-04-02T05:56:40;101608.13;;;18.74;44.87
61710;BME280;47633;51.494;5.386;2023-04-02T05:58:53;101617.09;;;18.84;45.15
61710;BME280;47633;51.494;5.386;2023-04-02T06:04:18;101640.63;;;18.88;45.19
61710;BME280;47633;51.494;5.386;2023-04-02T06:06:55;101634.41;;;18.89;45.23
61710;BME280;47633;51.494;5.386;2023-04-02T06:12:25;101648.13;;;18.94;45.21
61710;BME280;47633;51.494;5.386;2023-04-02T06:14:52;101649.81;;;18.95;45.09
61710;BME280;47633;51.494;5.386;2023-04-02T06:17:19;101653.19;;;18.97;45.01
61710;BME280;47633;51.494;5.386;2023-04-02T06:19:44;101665.66;;;18.95;45.47
61710;BME280;47633;51.494;5.386;2023-04-02T06:22:19;101677.78;;;18.97;45.51
61710;BME280;47633;51.494;5.386;2023-04-02T06:24:52;101677.69;;;18.99;45.65
61710;BME280;47633;51.494;5.386;2023-04-02T06:27:22;101686.38;;;19.01;45.51
61710;BME280;47633;51.494;5.386;2023-04-02T06:29:54;101690.56;;;19.03;45.34
61710;BME280;47633;51.494;5.386;2023-04-02T06:32:22;101699.31;;;19.04;45.63
61710;BME280;47633;51.494;5.386;2023-04-02T06:34:51;101701.25;;;19.02;45.57
61710;BME280;47633;51.494;5.386;2023-04-02T06:39:47;101710.88;;;19.03;45.27
61710;BME280;47633;51.494;5.386;2023-04-02T06:42:30;101716.16;;;19.03;45.39
61710;BME280;47633;51.494;5.386;2023-04-02T06:44:57;101717.09;;;19.02;45.47
61710;BME280;47633;51.494;5.386;2023-04-02T06:47:38;101728.50;;;19.02;45.39
61710;BME280;47633;51.494;5.386;2023-04-02T06:52:43;101732.94;;;19.02;45.19
61710;BME280;47633;51.494;5.386;2023-04-02T06:58:01;101750.28;;;19.06;45.44
61710;BME280;47633;51.494;5.386;2023-04-02T07:00:39;101752.28;;;19.02;45.49
61710;BME280;47633;51.494;5.386;2023-04-02T07:03:08;101758.41;;;19.03;45.65
61710;BME280;47633;51.494;5.386;2023-04-02T07:05:38;101765.63;;;19.01;45.35
61710;BME280;47633;51.494;5.386;2023-04-02T07:08:04;101772.56;;;19.02;45.53
61710;BME280;47633;51.494;5.386;2023-04-02T07:10:29;101783.88;;;19.04;45.10
61710;BME280;47633;51.494;5.386;2023-04-02T07:12:55;101786.63;;;19.02;45.12
61710;BME280;47633;51.494;5.386;2023-04-02T07:15:20;101801.53;;;19.03;45.17
61710;BME280;47633;51.494;5.386;2023-04-02T07:17:48;101798.03;;;19.03;45.12
61710;BME280;47633;51.494;5.386;2023-04-02T07:20:25;101804.47;;;18.99;44.90
61710;BME280;47633;51.494;5.386;2023-04-02T07:22:51;101803.75;;;18.97;44.68
61710;BME280;47633;51.494;5.386;2023-04-02T07:25:16;101821.19;;;18.99;44.85
61710;BME280;47633;51.494;5.386;2023-04-02T07:27:42;101816.84;;;18.98;45.07
61710;BME280;47633;51.494;5.386;2023-04-02T07:30:07;101817.91;;;18.96;45.03
61710;BME280;47633;51.494;5.386;2023-04-02T07:32:33;101834.41;;;18.99;45.08
61710;BME280;47633;51.494;5.386;2023-04-02T07:34:58;101832.59;;;19.00;44.87
61710;BME280;47633;51.494;5.386;2023-04-02T07:37:23;101849.06;;;19.03;44.72
61710;BME280;47633;51.494;5.386;2023-04-02T07:39:49;101851.81;;;19.02;44.59
61710;BME280;47633;51.494;5.386;2023-04-02T07:42:14;101844.09;;;18.99;44.90
61710;BME280;47633;51.494;5.386;2023-04-02T07:44:40;101846.75;;;18.99;44.89
61710;BME280;47633;51.494;5.386;2023-04-02T07:47:05;101847.72;;;18.98;44.98
61710;BME280;47633;51.494;5.386;2023-04-02T07:49:32;101850.25;;;18.99;44.72
61710;BME280;47633;51.494;5.386;2023-04-02T07:51:57;101860.06;;;18.97;45.02
61710;BME280;47633;51.494;5.386;2023-04-02T07:54:23;101853.00;;;18.98;44.75
61710;BME280;47633;51.494;5.386;2023-04-02T07:56:48;101864.41;;;18.98;44.60
61710;BME280;47633;51.494;5.386;2023-04-02T07:59:13;101873.94;;;19.01;44.66
61710;BME280;47633;51.494;5.386;2023-04-02T08:01:39;101874.88;;;19.00;44.53
61710;BME280;47633;51.494;5.386;2023-04-02T08:04:04;101883.84;;;18.97;44.86
61710;BME280;47633;51.494;5.386;2023-04-02T08:06:31;101873.38;;;18.96;44.81
61710;BME280;47633;51.494;5.386;2023-04-02T08:08:57;101887.34;;;18.98;45.00
61710;BME280;47633;51.494;5.386;2023-04-02T08:11:23;101896.84;;;19.00;45.03
61710;BME280;47633;51.494;5.386;2023-04-02T08:13:48;101890.81;;;18.98;44.90
61710;BME280;47633;51.494;5.386;2023-04-02T08:16:14;101898.53;;;19.01;44.68
61710;BME280;47633;51.494;5.386;2023-04-02T08:18:40;101900.34;;;19.01;45.00
61710;BME280;47633;51.494;5.386;2023-04-02T08:21:07;101904.97;;;18.97;44.74
61710;BME280;47633;51.494;5.386;2023-04-02T08:23:33;101910.91;;;19.01;45.02
61710;BME280;47633;51.494;5.386;2023-04-02T08:26:00;101915.22;;;19.02;44.65
61710;BME280;47633;51.494;5.386;2023-04-02T08:28:26;101927.50;;;19.03;44.69
61710;BME280;47633;51.494;5.386;2023-04-02T08:30:51;101927.72;;;19.00;44.67
61710;BME280;47633;51.494;5.386;2023-04-02T08:33:17;101933.63;;;19.03;44.56
61710;BME280;47633;51.494;5.386;2023-04-02T08:35:47;101940.72;;;19.03;44.43
61710;BME280;47633;51.494;5.386;2023-04-02T08:38:14;101939.00;;;19.02;44.52
61710;BME280;47633;51.494;5.386;2023-04-02T08:40:43;101949.56;;;19.02;44.75
61710;BME280;47633;51.494;5.386;2023-04-02T08:43:15;101954.84;;;19.02;44.72
61710;BME280;47633;51.494;5.386;2023-04-02T08:48:37;101963.63;;;19.02;44.32
61710;BME280;47633;51.494;5.386;2023-04-02T08:51:06;101973.16;;;19.05;44.31
61710;BME280;47633;51.494;5.386;2023-04-02T08:53:35;101971.53;;;19.02;44.21
61710;BME280;47633;51.494;5.386;2023-04-02T08:56:15;101975.78;;;19.05;44.27
61710;BME280;47633;51.494;5.386;2023-04-02T08:58:49;101974.19;;;19.02;44.49
61710;BME280;47633;51.494;5.386;2023-04-02T09:01:45;101988.16;;;19.05;44.45
61710;BME280;47633;51.494;5.386;2023-04-02T09:04:19;102005.69;;;19.06;44.35
61710;BME280;47633;51.494;5.386;2023-04-02T09:06:46;102004.94;;;19.03;44.10
61710;BME280;47633;51.494;5.386;2023-04-02T09:09:13;102014.59;;;19.05;44.18
61710;BME280;47633;51.494;5.386;2023-04-02T09:11:58;102024.94;;;19.08;44.32
61710;BME280;47633;51.494;5.386;2023-04-02T09:14:41;102016.25;;;19.06;43.72
61710;BME280;47633;51.494;5.386;2023-04-02T09:17:18;102020.59;;;19.07;44.10
61710;BME280;47633;51.494;5.386;2023-04-02T09:19:55;102020.91;;;19.02;43.96
61710;BME280;47633;51.494;5.386;2023-04-02T09:22:27;102026.19;;;19.02;43.91
61710;BME280;47633;51.494;5.386;2023-04-02T09:24:57;102034.75;;;19.06;43.74
61710;BME280;47633;51.494;5.386;2023-04-02T09:27:29;102043.75;;;19.03;43.54
61710;BME280;47633;51.494;5.386;2023-04-02T09:32:48;102051.66;;;19.03;43.30
61710;BME280;47633;51.494;5.386;2023-04-02T09:35:19;102057.91;;;19.02;43.32
61710;BME280;47633;51.494;5.386;2023-04-02T09:37:45;102057.91;;;19.02;43.16
61710;BME280;47633;51.494;5.386;2023-04-02T09:40:26;102066.78;;;19.01;43.15
61710;BME280;47633;51.494;5.386;2023-04-02T09:45:28;102073.00;;;19.00;43.22
61710;BME280;47633;51.494;5.386;2023-04-02T09:47:54;102076.59;;;18.99;42.94
61710;BME280;47633;51.494;5.386;2023-04-02T09:52:45;102083.69;;;18.98;42.82
61710;BME280;47633;51.494;5.386;2023-04-02T09:57:42;102089.91;;;18.97;43.12
61710;BME280;47633;51.494;5.386;2023-04-02T10:00:24;102099.63;;;18.97;43.46
61710;BME280;47633;51.494;5.386;2023-04-02T10:03:25;102101.44;;;18.96;42.94
61710;BME280;47633;51.494;5.386;2023-04-02T10:06:13;102105.00;;;18.95;42.91
61710;BME280;47633;51.494;5.386;2023-04-02T10:08:40;102112.94;;;18.95;42.93
61710;BME280;47633;51.494;5.386;2023-04-02T10:11:16;102105.00;;;18.95;42.92
61710;BME280;47633;51.494;5.386;2023-04-02T10:13:58;102101.72;;;18.92;42.84
61710;BME280;47633;51.494;5.386;2023-04-02T10:16:33;102116.59;;;18.93;42.71
61710;BME280;47633;51.494;5.386;2023-04-02T10:19:10;102112.09;;;18.95;43.19
61710;BME280;47633;51.494;5.386;2023-04-02T10:21:41;102118.22;;;18.95;42.79
61710;BME280;47633;51.494;5.386;2023-04-02T10:24:14;102114.84;;;18.93;42.63
61710;BME280;47633;51.494;5.386;2023-04-02T10:26:50;102128.88;;;18.94;42.77
61710;BME280;47633;51.494;5.386;2023-04-02T10:31:48;102147.19;;;18.97;42.58
61710;BME280;47633;51.494;5.386;2023-04-02T10:34:22;102142.94;;;18.94;42.78
61710;BME280;47633;51.494;5.386;2023-04-02T10:36:52;102148.31;;;18.93;42.64
61710;BME280;47633;51.494;5.386;2023-04-02T10:39:24;102156.13;;;18.94;42.57
61710;BME280;47633;51.494;5.386;2023-04-02T10:42:17;102165.03;;;18.93;42.70
61710;BME280;47633;51.494;5.386;2023-04-02T10:45:29;102158.22;;;18.89;42.85
61710;BME280;47633;51.494;5.386;2023-04-02T10:47:56;102168.50;;;18.94;42.66
61710;BME280;47633;51.494;5.386;2023-04-02T10:50:35;102169.34;;;18.94;42.23
61710;BME280;47633;51.494;5.386;2023-04-02T10:53:15;102167.56;;;18.95;42.43
61710;BME280;47633;51.494;5.386;2023-04-02T10:55:51;102161.59;;;18.91;42.42
61710;BME280;47633;51.494;5.386;2023-04-02T10:58:24;102172.94;;;18.93;42.48
61710;BME280;47633;51.494;5.386;2023-04-02T11:00:54;102174.72;;;18.93;42.62
61710;BME280;47633;51.494;5.386;2023-04-02T11:06:15;102181.72;;;18.94;42.37
61710;BME280;47633;51.494;5.386;2023-04-02T11:08:51;102193.88;;;18.96;42.35
61710;BME280;47633;51.494;5.386;2023-04-02T11:11:22;102193.78;;;18.98;42.50
61710;BME280;47633;51.494;5.386;2023-04-02T11:14:23;102199.91;;;18.98;42.38
61710;BME280;47633;51.494;5.386;2023-04-02T11:16:50;102201.72;;;18.98;42.60
61710;BME280;47633;51.494;5.386;2023-04-02T11:21:42;102209.56;;;18.99;42.49
61710;BME280;47633;51.494;5.386;2023-04-02T11:24:34;102214.75;;;19.01;42.21
61710;BME280;47633;51.494;5.386;2023-04-02T11:27:25;102226.25;;;19.00;42.07
61710;BME280;47633;51.494;5.386;2023-04-02T11:32:27;102234.16;;;19.00;42.09
61710;BME280;47633;51.494;5.386;2023-04-02T11:34:57;102237.56;;;19.02;42.13
61710;BME280;47633;51.494;5.386;2023-04-02T11:37:34;102239.44;;;19.00;42.11
61710;BME280;47633;51.494;5.386;2023-04-02T11:42:39;102243.81;;;19.01;41.98
61710;BME280;47633;51.494;5.386;2023-04-02T11:50:39;102241.34;;;18.98;42.03
61710;BME280;47633;51.494;5.386;2023-04-02T11:55:37;102246.63;;;18.98;41.71
61710;BME280;47633;51.494;5.386;2023-04-02T12:03:32;102265.88;;;19.00;42.09
61710;BME280;47633;51.494;5.386;2023-04-02T12:06:11;102282.47;;;19.02;42.08
61710;BME280;47633;51.494;5.386;2023-04-02T12:08:53;102278.78;;;19.05;42.03
61710;BME280;47633;51.494;5.386;2023-04-02T12:11:37;102280.66;;;19.02;42.16
61710;BME280;47633;51.494;5.386;2023-04-02T12:17:31;102292.84;;;19.05;42.13
61710;BME280;47633;51.494;5.386;2023-04-02T12:22:35;102296.50;;;19.02;42.10
61710;BME280;47633;51.494;5.386;2023-04-02T12:25:05;102299.94;;;19.05;42.01
61710;BME280;47633;51.494;5.386;2023-04-02T12:27:31;102303.41;;;19.05;42.08
61710;BME280;47633;51.494;5.386;2023-04-02T12:32:36;102313.25;;;19.03;41.93
61710;BME280;47633;51.494;5.386;2023-04-02T12:35:02;102313.25;;;19.03;41.98
61710;BME280;47633;51.494;5.386;2023-04-02T12:37:29;102316.81;;;19.02;41.57
61710;BME280;47633;51.494;5.386;2023-04-02T12:39:59;102320.19;;;19.04;41.86
61710;BME280;47633;51.494;5.386;2023-04-02T12:42:43;102322.94;;;19.02;42.02
61710;BME280;47633;51.494;5.386;2023-04-02T12:45:28;102327.28;;;19.03;42.00
61710;BME280;47633;51.494;5.386;2023-04-02T12:47:59;102329.84;;;19.05;41.90
61710;BME280;47633;51.494;5.386;2023-04-02T12:50:26;102334.28;;;19.05;41.95
61710;BME280;47633;51.494;5.386;2023-04-02T12:52:53;102339.47;;;19.06;42.05
61710;BME280;47633;51.494;5.386;2023-04-02T12:55:22;102343.03;;;19.05;41.76
61710;BME280;47633;51.494;5.386;2023-04-02T12:57:48;102341.25;;;19.06;41.68
61710;BME280;47633;51.494;5.386;2023-04-02T13:02:45;102341.34;;;19.04;41.75
61710;BME280;47633;51.494;5.386;2023-04-02T13:05:12;102341.25;;;19.06;41.41
61710;BME280;47633;51.494;5.386;2023-04-02T13:07:38;102348.16;;;19.08;41.60
61710;BME280;47633;51.494;5.386;2023-04-02T13:10:20;102341.34;;;19.04;41.10
61710;BME280;47633;51.494;5.386;2023-04-02T13:12:47;102351.34;;;19.13;41.54
61710;BME280;47633;51.494;5.386;2023-04-02T13:15:24;102350.50;;;19.13;41.36
61710;BME280;47633;51.494;5.386;2023-04-02T13:18:18;102345.97;;;19.15;41.46
61710;BME280;47633;51.494;5.386;2023-04-02T13:23:38;102328.44;;;19.14;41.29
61710;BME280;47633;51.494;5.386;2023-04-02T13:26:14;102333.31;;;19.20;41.27
61710;BME280;47633;51.494;5.386;2023-04-02T13:28:42;102338.41;;;19.23;41.20
61710;BME280;47633;51.494;5.386;2023-04-02T13:31:14;102334.94;;;19.23;41.39
61710;BME280;47633;51.494;5.386;2023-04-02T13:33:40;102325.19;;;19.23;41.30
61710;BME280;47633;51.494;5.386;2023-04-02T13:36:11;102330.47;;;19.23;41.04
61710;BME280;47633;51.494;5.386;2023-04-02T13:38:37;102343.50;;;19.26;41.02
61710;BME280;47633;51.494;5.386;2023-04-02T13:41:02;102343.50;;;19.26;41.29
61710;BME280;47633;51.494;5.386;2023-04-02T13:43:27;102343.50;;;19.26;41.03
61710;BME280;47633;51.494;5.386;2023-04-02T13:45:53;102350.59;;;19.26;41.15
61710;BME280;47633;51.494;5.386;2023-04-02T13:48:19;102335.56;;;19.26;41.06
61710;BME280;47633;51.494;5.386;2023-04-02T13:50:48;102348.78;;;19.26;41.21
61710;BME280;47633;51.494;5.386;2023-04-02T13:53:28;102338.41;;;19.23;41.30
61710;BME280;47633;51.494;5.386;2023-04-02T13:55:55;102350.78;;;19.23;41.23
61710;BME280;47633;51.494;5.386;2023-04-02T13:58:20;102348.78;;;19.26;41.13
61710;BME280;47633;51.494;5.386;2023-04-02T14:00:47;102358.44;;;19.27;41.15
61710;BME280;47633;51.494;5.386;2023-04-02T14:03:15;102347.94;;;19.26;41.28
61710;BME280;47633;51.494;5.386;2023-04-02T14:08:26;102362.88;;;19.27;41.39
61710;BME280;47633;51.494;5.386;2023-04-02T14:13:50;102356.63;;;19.28;41.09
61710;BME280;47633;51.494;5.386;2023-04-02T14:16:25;102357.41;;;19.30;41.21
61710;BME280;47633;51.494;5.386;2023-04-02T14:19:16;102370.53;;;19.31;41.16
61710;BME280;47633;51.494;5.386;2023-04-02T14:22:06;102371.25;;;19.33;41.12
61710;BME280;47633;51.494;5.386;2023-04-02T14:28:13;102365.22;;;19.31;40.71
61710;BME280;47633;51.494;5.386;2023-04-02T14:33:40;102368.34;;;19.38;40.50
61710;BME280;47633;51.494;5.386;2023-04-02T14:36:19;102377.56;;;19.45;40.65
61710;BME280;47633;51.494;5.386;2023-04-02T14:38:57;102372.47;;;19.42;40.66
61710;BME280;47633;51.494;5.386;2023-04-02T14:41:36;102380.97;;;19.47;40.78
61710;BME280;47633;51.494;5.386;2023-04-02T14:44:06;102387.31;;;19.45;40.59
61710;BME280;47633;51.494;5.386;2023-04-02T14:46:35;102387.84;;;19.50;40.59
61710;BME280;47633;51.494;5.386;2023-04-02T14:49:29;102387.84;;;19.50;40.95
61710;BME280;47633;51.494;5.386;2023-04-02T14:52:05;102380.56;;;19.53;40.98
61710;BME280;47633;51.494;5.386;2023-04-02T14:54:37;102395.41;;;19.56;41.14
61710;BME280;47633;51.494;5.386;2023-04-02T14:57:21;102401.53;;;19.56;40.98
61710;BME280;47633;51.494;5.386;2023-04-02T15:00:07;102402.13;;;19.62;41.26
61710;BME280;47633;51.494;5.386;2023-04-02T15:03:08;102392.56;;;19.59;40.98
61710;BME280;47633;51.494;5.386;2023-04-02T15:05:41;102402.13;;;19.62;40.71
61710;BME280;47633;51.494;5.386;2023-04-02T15:11:09;102405.78;;;19.59;40.44
61710;BME280;47633;51.494;5.386;2023-04-02T15:13:40;102398.06;;;19.56;40.28
61710;BME280;47633;51.494;5.386;2023-04-02T15:16:12;102399.75;;;19.57;40.65
61710;BME280;47633;51.494;5.386;2023-04-02T15:18:38;102400.69;;;19.56;40.51
61710;BME280;47633;51.494;5.386;2023-04-02T15:21:28;102400.69;;;19.56;40.76
61710;BME280;47633;51.494;5.386;2023-04-02T15:23:58;102400.50;;;19.59;40.59
61710;BME280;47633;51.494;5.386;2023-04-02T15:26:39;102406.63;;;19.60;40.78
61710;BME280;47633;51.494;5.386;2023-04-02T15:29:27;102404.19;;;19.56;40.85
61710;BME280;47633;51.494;5.386;2023-04-02T15:32:17;102405.34;;;19.52;41.15
61710;BME280;47633;51.494;5.386;2023-04-02T15:34:59;102407.00;;;19.53;41.23
61710;BME280;47633;51.494;5.386;2023-04-02T15:38:10;102413.06;;;19.55;41.44
61710;BME280;47633;51.494;5.386;2023-04-02T15:40:56;102411.28;;;19.56;41.91